createdAt,value
2023-04-18T00:01:15.098Z,16.70
2023-04-18T00:06:16.801Z,14.60
2023-04-18T00:11:18.455Z,14.40
2023-04-18T00:16:20.877Z,13.80
2023-04-18T00:21:22.732Z,14.40
2023-04-18T00:26:24.422Z,14.00
2023-04-18T00:31:26.910Z,10.80
2023-04-18T00:36:28.881Z,14.10
2023-04-18T00:41:30.588Z,13.90
2023-04-18T00:46:32.689Z,13.30
2023-04-18T00:51:35.620Z,12.20
2023-04-18T00:56:37.423Z,12.50
2023-04-18T01:01:40.185Z,15.40
2023-04-18T01:06:44.129Z,13.30
2023-04-18T01:11:46.056Z,14.00
2023-04-18T01:16:51.262Z,13.10
2023-04-18T01:21:54.337Z,13.30
2023-04-18T01:26:57.182Z,14.30
2023-04-18T01:31:58.942Z,14.60
2023-04-18T01:37:00.818Z,12.40
2023-04-18T01:42:02.811Z,13.50
2023-04-18T01:47:04.537Z,14.10
2023-04-18T01:52:07.549Z,12.50
2023-04-18T01:57:09.220Z,17.80
2023-04-18T02:02:11.443Z,17.00
2023-04-18T02:07:13.422Z,13.10
2023-04-18T02:12:15.261Z,17.10
2023-04-18T02:17:16.934Z,17.10
2023-04-18T02:22:18.830Z,18.10
2023-04-18T02:27:20.814Z,17.70
2023-04-18T02:32:22.605Z,18.90
2023-04-18T02:37:24.467Z,14.90
2023-04-18T02:42:26.317Z,14.70
2023-04-18T02:47:28.037Z,14.70
2023-04-18T02:52:30.500Z,15.10
2023-04-18T02:57:32.246Z,18.60
2023-04-18T03:02:34.396Z,17.50
2023-04-18T03:07:44.500Z,13.50
2023-04-18T03:12:47.640Z,14.30
2023-04-18T03:17:51.425Z,15.30
2023-04-18T03:22:55.111Z,13.00
2023-04-18T03:27:59.217Z,13.30
2023-04-18T03:33:02.939Z,15.50
2023-04-18T03:38:05.397Z,16.60
2023-04-18T03:43:08.674Z,15.10
2023-04-18T03:48:11.077Z,14.80
2023-04-18T03:53:16.036Z,16.60
2023-04-18T03:58:18.160Z,13.50
2023-04-18T04:03:20.546Z,15.00
2023-04-18T04:08:22.830Z,14.50
2023-04-18T04:13:24.594Z,19.20
2023-04-18T04:18:31.189Z,19.30
2023-04-18T04:23:34.370Z,18.60
2023-04-18T04:28:37.151Z,21.90
2023-04-18T04:33:41.084Z,21.50
2023-04-18T04:38:48.934Z,23.00
2023-04-18T04:43:52.324Z,21.30
2023-04-18T04:48:57.362Z,19.00
2023-04-18T04:54:00.570Z,22.30
2023-04-18T04:59:02.889Z,25.10
2023-04-18T05:04:09.692Z,28.80
2023-04-18T05:09:11.511Z,24.10
2023-04-18T05:14:13.521Z,30.30
2023-04-18T05:19:15.763Z,30.30
2023-04-18T05:24:17.466Z,23.80
2023-04-18T05:29:19.381Z,27.20
2023-04-18T05:34:21.177Z,31.30
2023-04-18T05:39:22.960Z,30.50
2023-04-18T05:44:24.885Z,24.40
2023-04-18T05:49:26.969Z,34.40
2023-04-18T05:54:29.063Z,33.80
2023-04-18T05:59:30.791Z,31.10
2023-04-18T06:04:32.736Z,35.90
2023-04-18T06:09:34.899Z,34.00
2023-04-18T06:14:36.584Z,35.70
2023-04-18T06:19:39.576Z,33.90
2023-04-18T06:24:41.346Z,32.10
2023-04-18T06:29:43.895Z,32.70
2023-04-18T06:34:45.773Z,33.20
2023-04-18T06:39:47.578Z,36.10
2023-04-18T06:44:49.273Z,31.50
2023-04-18T06:49:51.238Z,33.10
2023-04-18T06:54:52.977Z,32.90
2023-04-18T06:59:54.713Z,33.30
2023-04-18T07:04:56.702Z,37.00
2023-04-18T07:09:59.147Z,39.70
2023-04-18T07:15:00.840Z,27.40
2023-04-18T07:20:03.250Z,24.40
2023-04-18T07:30:07.517Z,27.30
2023-04-18T07:35:10.084Z,32.50
2023-04-18T07:40:12.330Z,21.90
2023-04-18T07:45:15.499Z,24.10
2023-04-18T07:50:17.292Z,23.80
2023-04-18T07:55:19.105Z,23.50
2023-04-18T08:00:21.259Z,22.40
2023-04-18T08:05:23.273Z,23.40
2023-04-18T08:10:25.204Z,21.10
2023-04-18T08:15:28.984Z,18.50
2023-04-18T08:20:31.261Z,26.20
2023-04-18T08:25:33.349Z,20.10
2023-04-18T08:30:35.393Z,26.40
2023-04-18T08:35:37.243Z,21.80
2023-04-18T08:45:44.889Z,23.70
2023-04-18T08:50:47.908Z,25.20
2023-04-18T08:55:53.995Z,32.70
2023-04-18T09:00:55.791Z,23.30
2023-04-18T09:06:09.324Z,23.10
2023-04-18T09:11:42.475Z,19.60
2023-04-18T09:16:47.288Z,24.70
2023-04-18T09:21:57.799Z,24.00
2023-04-18T09:27:01.194Z,22.90
2023-04-18T09:32:02.927Z,21.00
2023-04-18T09:37:11.033Z,23.50
2023-04-18T09:42:13.781Z,21.30
2023-04-18T09:47:15.527Z,23.20
2023-04-18T09:52:19.429Z,18.40
2023-04-18T09:57:22.109Z,18.60
2023-04-18T10:02:26.350Z,21.80
2023-04-18T10:07:28.461Z,23.80
2023-04-18T10:12:30.714Z,17.30
2023-04-18T10:18:03.664Z,15.90
2023-04-18T10:23:32.031Z,22.50
2023-04-18T10:28:57.221Z,19.90
2023-04-18T10:39:22.702Z,16.20
2023-04-18T10:44:24.548Z,18.70
2023-04-18T10:49:31.092Z,25.10
2023-04-18T10:54:56.463Z,15.80
2023-04-18T11:00:01.083Z,19.70
2023-04-18T11:05:04.842Z,16.20
2023-04-18T11:10:08.931Z,15.90
2023-04-18T11:15:11.670Z,17.70
2023-04-18T11:20:14.906Z,17.70
2023-04-18T11:25:17.666Z,15.00
2023-04-18T11:30:19.427Z,17.20
2023-04-18T11:35:21.428Z,20.30
2023-04-18T11:40:23.346Z,12.40
2023-04-18T11:45:25.067Z,17.20
2023-04-18T11:50:27.390Z,14.60
2023-04-18T11:55:29.311Z,15.60
2023-04-18T12:00:39.626Z,11.90
2023-04-18T12:05:42.280Z,17.50
2023-04-18T12:10:52.646Z,14.90
2023-04-18T12:15:54.595Z,11.50
2023-04-18T12:20:58.542Z,12.90
2023-04-18T12:26:05.783Z,12.90
2023-04-18T12:31:07.677Z,10.70
2023-04-18T12:41:12.708Z,15.20
2023-04-18T12:51:16.001Z,12.60
2023-04-18T12:56:17.918Z,16.10
2023-04-18T13:01:19.893Z,13.50
2023-04-18T13:06:21.679Z,15.40
2023-04-18T13:11:28.478Z,13.90
2023-04-18T13:16:30.347Z,13.60
2023-04-18T13:26:37.635Z,15.80
2023-04-18T13:31:39.339Z,11.50
2023-04-18T13:36:41.060Z,12.00
2023-04-18T13:41:43.374Z,11.60
2023-04-18T13:46:45.267Z,19.30
2023-04-18T13:56:50.185Z,10.90
2023-04-18T14:01:53.321Z,10.10
2023-04-18T14:06:55.538Z,12.70
2023-04-18T14:11:58.490Z,11.20
2023-04-18T14:17:00.486Z,13.70
2023-04-18T14:27:04.126Z,13.70
2023-04-18T14:32:07.019Z,13.20
2023-04-18T14:37:08.962Z,13.90
2023-04-18T14:42:11.066Z,11.80
2023-04-18T14:47:12.824Z,11.10
2023-04-18T14:52:14.437Z,12.30
2023-04-18T14:57:16.284Z,24.60
2023-04-18T15:02:18.048Z,10.60
2023-04-18T15:07:19.757Z,14.40
2023-04-18T15:12:21.917Z,11.10
2023-04-18T15:22:25.413Z,15.30
2023-04-18T15:27:27.266Z,13.90
2023-04-18T15:32:29.164Z,14.20
2023-04-18T15:42:34.061Z,14.00
2023-04-18T15:47:36.209Z,9.80
2023-04-18T15:52:40.749Z,9.40
2023-04-18T15:57:42.583Z,15.50
2023-04-18T16:02:45.820Z,12.00
2023-04-18T16:07:47.778Z,11.60
2023-04-18T16:12:49.763Z,10.80
2023-04-18T16:17:51.454Z,12.20
2023-04-18T16:22:53.967Z,14.60
2023-04-18T16:27:55.892Z,16.50
2023-04-18T16:32:57.702Z,14.90
2023-04-18T16:37:59.457Z,18.50
2023-04-18T16:43:04.419Z,11.10
2023-04-18T16:48:06.214Z,18.60
2023-04-18T16:53:08.149Z,12.70
2023-04-18T16:58:09.923Z,20.70
2023-04-18T17:03:11.873Z,18.60
2023-04-18T17:08:13.685Z,15.70
2023-04-18T17:13:15.753Z,17.60
2023-04-18T17:18:17.426Z,24.80
2023-04-18T17:23:19.369Z,17.90
2023-04-18T17:28:23.705Z,23.30
2023-04-18T17:33:25.522Z,23.60
2023-04-18T17:38:27.165Z,22.00
2023-04-18T17:43:29.407Z,21.50
2023-04-18T17:48:31.278Z,28.50
2023-04-18T17:53:33.002Z,23.30
2023-04-18T17:58:35.787Z,19.30
2023-04-18T18:03:37.874Z,22.70
2023-04-18T18:13:42.413Z,28.00
2023-04-18T18:18:44.063Z,25.90
2023-04-18T18:23:45.959Z,25.00
2023-04-18T18:28:47.635Z,17.90
2023-04-18T18:33:49.304Z,20.70
2023-04-18T18:38:51.126Z,23.00
2023-04-18T18:43:53.032Z,23.00
2023-04-18T18:48:54.692Z,17.00
2023-04-18T18:53:57.178Z,22.60
2023-04-18T18:58:58.834Z,19.70
2023-04-18T19:04:00.793Z,20.80
2023-04-18T19:09:02.706Z,19.90
2023-04-18T19:14:04.640Z,20.40
2023-04-18T19:19:07.394Z,22.60
2023-04-18T19:24:09.296Z,22.80
2023-04-18T19:29:13.992Z,25.30
2023-04-18T19:34:18.791Z,25.70
2023-04-18T19:39:20.495Z,22.70
2023-04-18T19:44:22.682Z,29.60
2023-04-18T19:49:24.365Z,38.50
2023-04-18T19:54:25.998Z,30.00
2023-04-18T19:59:27.794Z,30.50
2023-04-18T20:04:31.631Z,30.10
2023-04-18T20:09:33.594Z,24.40
2023-04-18T20:14:35.665Z,27.80
2023-04-18T20:19:37.300Z,27.30
2023-04-18T20:24:39.405Z,25.90
2023-04-18T20:29:41.187Z,28.60
2023-04-18T20:34:43.429Z,30.20
2023-04-18T20:39:45.533Z,26.20
2023-04-18T20:44:47.675Z,35.80
2023-04-18T20:49:49.281Z,33.50
2023-04-18T20:54:50.940Z,37.80
2023-04-18T20:59:52.653Z,30.10
2023-04-18T21:04:54.725Z,30.50
2023-04-18T21:09:57.055Z,27.50
2023-04-18T21:15:01.624Z,31.60
2023-04-18T21:20:03.494Z,32.70
2023-04-18T21:25:05.778Z,30.00
2023-04-18T21:30:08.320Z,23.70
2023-04-18T21:35:13.683Z,23.40
2023-04-18T21:40:15.930Z,27.70
2023-04-18T21:45:18.962Z,30.80
2023-04-18T21:50:22.254Z,29.20
2023-04-18T21:55:24.970Z,28.40
2023-04-18T22:00:27.745Z,27.70
2023-04-18T22:05:29.954Z,34.70
2023-04-18T22:10:34.256Z,37.20
2023-04-18T22:15:39.875Z,31.70
2023-04-18T22:20:41.581Z,28.50
2023-04-18T22:25:43.248Z,36.90
2023-04-18T22:30:45.135Z,31.70
2023-04-18T22:35:48.275Z,27.80
2023-04-18T22:40:49.954Z,36.90
2023-04-18T22:45:52.047Z,41.20
2023-04-18T22:50:54.244Z,40.60
2023-04-18T22:55:56.051Z,34.20
2023-04-18T23:00:59.334Z,33.80
2023-04-18T23:06:01.476Z,38.20
2023-04-18T23:11:05.791Z,39.10
2023-04-18T23:16:08.152Z,35.40
2023-04-18T23:21:09.850Z,39.10
2023-04-18T23:26:15.450Z,40.30
2023-04-18T23:31:17.619Z,37.30
2023-04-18T23:36:19.365Z,30.40
2023-04-18T23:46:24.241Z,40.40
2023-04-18T23:51:27.965Z,36.80
2023-04-18T23:56:29.726Z,32.90
